createdAt,value
2022-08-19T00:00:51.336Z,10.65
2022-08-19T00:05:52.919Z,9.82
2022-08-19T00:10:54.377Z,10.95
2022-08-19T00:15:56.951Z,10.93
2022-08-19T00:20:58.959Z,10.50
2022-08-19T00:26:00.380Z,11.60
2022-08-19T00:31:03.017Z,11.70
2022-08-19T00:36:08.604Z,13.25
2022-08-19T00:41:15.583Z,11.43
2022-08-19T00:46:17.060Z,11.68
2022-08-19T00:51:18.788Z,11.05
2022-08-19T00:56:20.458Z,12.23
2022-08-19T01:01:22.139Z,11.65
2022-08-19T01:06:24.530Z,13.23
2022-08-19T01:11:27.881Z,14.10
2022-08-19T01:16:31.049Z,12.80
2022-08-19T01:21:48.390Z,13.40
2022-08-19T01:26:50.039Z,12.43
2022-08-19T01:31:53.535Z,11.57
2022-08-19T01:36:55.136Z,12.35
2022-08-19T01:41:56.803Z,11.82
2022-08-19T01:46:58.430Z,12.57
2022-08-19T01:52:01.908Z,11.07
2022-08-19T01:57:09.408Z,12.00
2022-08-19T02:02:11.421Z,12.30
2022-08-19T02:07:12.998Z,13.18
2022-08-19T02:12:15.546Z,12.27
2022-08-19T02:17:16.969Z,12.93
2022-08-19T02:22:18.410Z,12.25
2022-08-19T02:27:20.263Z,13.38
2022-08-19T02:32:21.806Z,13.80
2022-08-19T02:37:41.782Z,11.85
2022-08-19T02:42:43.678Z,13.32
2022-08-19T02:47:45.338Z,11.75
2022-08-19T02:52:46.838Z,11.23
2022-08-19T02:57:48.972Z,14.05
2022-08-19T03:02:50.746Z,13.63
2022-08-19T03:07:52.268Z,14.05
2022-08-19T03:12:53.888Z,13.45
2022-08-19T03:17:55.579Z,11.77
2022-08-19T03:22:58.845Z,12.15
2022-08-19T03:28:00.279Z,13.18
2022-08-19T03:33:02.846Z,12.65
2022-08-19T03:38:07.583Z,14.77
2022-08-19T03:43:09.373Z,13.27
2022-08-19T03:48:10.805Z,14.52
2022-08-19T03:53:12.281Z,15.23
2022-08-19T03:58:13.736Z,13.65
2022-08-19T04:03:15.643Z,13.35
2022-08-19T04:08:21.149Z,15.32
2022-08-19T04:13:23.039Z,14.98
2022-08-19T04:18:24.973Z,14.68
2022-08-19T04:23:26.632Z,15.93
2022-08-19T04:28:31.050Z,16.70
2022-08-19T04:33:33.096Z,16.40
2022-08-19T04:38:34.862Z,15.55
2022-08-19T04:43:39.066Z,15.93
2022-08-19T04:48:44.916Z,18.73
2022-08-19T04:53:51.245Z,16.65
2022-08-19T04:58:53.527Z,18.63
2022-08-19T05:03:55.807Z,17.10
2022-08-19T05:08:57.265Z,18.45
2022-08-19T05:13:58.836Z,18.02
2022-08-19T05:19:19.202Z,18.10
2022-08-19T05:24:21.948Z,18.33
2022-08-19T05:29:25.840Z,16.42
2022-08-19T05:34:28.351Z,16.88
2022-08-19T05:39:33.491Z,14.98
2022-08-19T05:44:39.207Z,15.70
2022-08-19T05:49:40.698Z,16.85
2022-08-19T05:54:43.607Z,16.27
2022-08-19T05:59:47.212Z,16.83
2022-08-19T06:04:48.761Z,16.63
2022-08-19T06:09:58.942Z,14.10
2022-08-19T06:15:06.539Z,15.93
2022-08-19T06:20:11.247Z,14.52
2022-08-19T06:25:13.972Z,14.95
2022-08-19T06:30:15.886Z,14.77
2022-08-19T06:35:17.461Z,15.18
2022-08-19T06:40:19.042Z,15.23
2022-08-19T06:45:21.473Z,14.27
2022-08-19T06:50:26.773Z,14.65
2022-08-19T06:55:30.399Z,15.45
2022-08-19T07:00:35.126Z,15.73
2022-08-19T07:05:45.773Z,15.20
2022-08-19T07:10:47.835Z,14.93
2022-08-19T07:15:51.202Z,13.32
2022-08-19T07:21:09.504Z,13.00
2022-08-19T07:26:20.123Z,14.75
2022-08-19T07:31:31.175Z,13.73
2022-08-19T07:36:35.731Z,13.98
2022-08-19T07:41:38.037Z,13.27
2022-08-19T07:46:45.891Z,10.60
2022-08-19T07:51:53.699Z,12.65
2022-08-19T07:56:55.358Z,13.13
2022-08-19T08:02:00.568Z,12.52
2022-08-19T08:07:20.846Z,11.45
2022-08-19T08:17:49.781Z,10.60
2022-08-19T08:23:11.765Z,10.85
2022-08-19T08:28:17.641Z,9.75
2022-08-19T08:33:33.259Z,9.95
2022-08-19T08:38:41.314Z,9.40
2022-08-19T08:43:48.500Z,8.40
2022-08-19T08:49:08.430Z,9.50
2022-08-19T08:54:14.402Z,7.43
2022-08-19T08:59:36.369Z,7.78
2022-08-19T09:04:38.878Z,6.90
2022-08-19T09:09:44.535Z,5.80
2022-08-19T09:15:10.021Z,5.82
2022-08-19T09:20:11.491Z,6.25
2022-08-19T09:25:17.257Z,7.13
2022-08-19T09:30:29.093Z,5.95
2022-08-19T09:35:50.184Z,5.88
2022-08-19T09:40:54.874Z,5.47
2022-08-19T09:45:56.911Z,5.45
2022-08-19T09:51:16.467Z,5.22
2022-08-19T09:56:20.048Z,5.22
2022-08-19T10:01:24.655Z,5.35
2022-08-19T10:06:45.723Z,4.68
2022-08-19T10:11:54.942Z,4.35
2022-08-19T10:16:57.498Z,4.47
2022-08-19T10:22:04.548Z,5.28
2022-08-19T10:27:06.753Z,5.30
2022-08-19T10:32:10.976Z,5.93
2022-08-19T10:37:14.340Z,5.10
2022-08-19T10:42:17.133Z,5.50
2022-08-19T10:47:24.981Z,5.63
2022-08-19T10:52:38.794Z,4.55
2022-08-19T10:58:01.270Z,4.75
2022-08-19T11:03:02.825Z,4.90
2022-08-19T11:08:04.277Z,5.57
2022-08-19T11:13:25.670Z,5.57
2022-08-19T11:18:27.442Z,4.38
2022-08-19T11:23:28.879Z,4.53
2022-08-19T11:28:30.685Z,4.65
2022-08-19T11:33:32.485Z,6.18
2022-08-19T11:38:36.398Z,5.78
2022-08-19T11:43:38.334Z,4.43
2022-08-19T11:48:40.009Z,4.78
2022-08-19T11:53:41.841Z,4.72
2022-08-19T11:58:43.333Z,4.57
2022-08-19T12:03:47.060Z,4.95
2022-08-19T12:08:48.830Z,4.97
2022-08-19T12:13:50.985Z,5.40
2022-08-19T12:18:52.537Z,5.38
2022-08-19T12:23:55.920Z,5.03
2022-08-19T12:28:59.894Z,6.30
2022-08-19T12:34:02.454Z,5.75
2022-08-19T12:39:04.491Z,5.63
2022-08-19T12:44:06.685Z,4.65
2022-08-19T12:49:20.681Z,4.55
2022-08-19T12:54:31.645Z,5.60
2022-08-19T12:59:33.189Z,6.22
2022-08-19T13:04:41.579Z,6.75
2022-08-19T13:09:43.615Z,7.25
2022-08-19T13:14:50.862Z,5.90
2022-08-19T13:19:52.643Z,6.63
2022-08-19T13:24:54.116Z,5.60
2022-08-19T13:30:14.335Z,3.30
2022-08-19T13:35:17.175Z,3.92
2022-08-19T13:40:23.765Z,3.03
2022-08-19T13:45:27.850Z,3.15
2022-08-19T13:50:32.183Z,2.95
2022-08-19T13:55:33.793Z,2.92
2022-08-19T14:00:39.279Z,2.72
2022-08-19T14:05:40.895Z,2.97
2022-08-19T14:10:44.635Z,3.20
2022-08-19T14:15:48.256Z,2.97
2022-08-19T14:20:50.084Z,3.00
2022-08-19T14:25:51.542Z,2.42
2022-08-19T14:30:55.306Z,3.30
2022-08-19T14:35:59.975Z,3.05
2022-08-19T14:41:18.003Z,3.85
2022-08-19T14:46:22.272Z,3.95
2022-08-19T14:51:25.475Z,3.97
2022-08-19T14:56:29.651Z,3.85
2022-08-19T15:01:31.283Z,4.03
2022-08-19T15:06:32.800Z,3.92
2022-08-19T15:11:35.060Z,3.72
2022-08-19T15:16:36.634Z,3.50
2022-08-19T15:21:38.227Z,3.40
2022-08-19T15:26:39.658Z,3.80
2022-08-19T15:31:41.176Z,2.95
2022-08-19T15:36:42.608Z,3.42
2022-08-19T15:41:45.248Z,3.40
2022-08-19T15:46:48.049Z,3.05
2022-08-19T15:51:51.776Z,2.67
2022-08-19T15:57:11.953Z,2.90
2022-08-19T16:02:32.524Z,2.80
2022-08-19T16:07:34.015Z,3.17
2022-08-19T16:12:35.860Z,2.75
2022-08-19T16:17:37.463Z,2.58
2022-08-19T16:22:40.545Z,2.72
2022-08-19T16:27:43.324Z,3.25
2022-08-19T16:33:03.616Z,2.65
2022-08-19T16:38:06.819Z,3.70
2022-08-19T16:43:09.821Z,4.38
2022-08-19T16:48:11.506Z,6.68
2022-08-19T16:53:14.213Z,6.72
2022-08-19T16:58:15.644Z,6.07
2022-08-19T17:03:19.628Z,6.18
2022-08-19T17:08:32.859Z,6.32
2022-08-19T17:13:34.671Z,6.43
2022-08-19T17:18:36.145Z,6.40
2022-08-19T17:23:43.341Z,6.82
2022-08-19T17:28:51.329Z,6.00
2022-08-19T17:33:55.127Z,4.78
2022-08-19T17:38:58.697Z,5.00
2022-08-19T17:44:00.727Z,4.93
2022-08-19T17:49:02.795Z,4.85
2022-08-19T17:54:06.400Z,4.50
2022-08-19T17:59:11.815Z,4.68
2022-08-19T18:04:17.210Z,3.92
2022-08-19T18:09:18.754Z,4.45
2022-08-19T18:14:32.907Z,4.20
2022-08-19T18:19:41.055Z,3.75
2022-08-19T18:24:45.876Z,4.00
2022-08-19T18:29:47.579Z,3.70
2022-08-19T18:34:49.144Z,2.92
2022-08-19T18:40:09.463Z,3.15
2022-08-19T18:45:30.063Z,2.80
2022-08-19T18:50:32.031Z,2.78
2022-08-19T18:55:33.549Z,3.35
2022-08-19T19:00:37.454Z,3.58
2022-08-19T19:05:40.002Z,2.70
2022-08-19T19:10:42.236Z,3.05
2022-08-19T19:15:43.925Z,2.25
2022-08-19T19:20:45.400Z,2.70
2022-08-19T19:25:50.564Z,2.60
2022-08-19T19:30:54.453Z,2.70
2022-08-19T19:35:56.272Z,2.38
2022-08-19T19:40:57.770Z,2.47
2022-08-19T19:45:59.337Z,2.40
2022-08-19T19:51:01.374Z,2.38
2022-08-19T19:56:04.276Z,2.08
2022-08-19T20:01:08.033Z,2.00
2022-08-19T20:06:13.405Z,2.00
2022-08-19T20:11:44.685Z,2.15
2022-08-19T20:16:47.718Z,2.13
2022-08-19T20:21:51.451Z,1.23
2022-08-19T20:26:53.732Z,0.90
2022-08-19T20:31:57.515Z,1.35
2022-08-19T20:37:00.883Z,1.00
2022-08-19T20:42:03.621Z,1.20
2022-08-19T20:47:05.251Z,1.17
2022-08-19T20:52:06.709Z,0.75
2022-08-19T20:57:08.713Z,0.85
2022-08-19T21:02:11.091Z,0.80
2022-08-19T21:07:12.585Z,0.80
2022-08-19T21:12:14.330Z,0.95
2022-08-19T21:17:15.864Z,1.00
2022-08-19T21:22:17.307Z,0.60
2022-08-19T21:27:18.952Z,1.00
2022-08-19T21:32:20.939Z,0.70
2022-08-19T21:37:25.745Z,0.60
2022-08-19T21:42:27.622Z,0.45
2022-08-19T21:47:29.051Z,0.60
2022-08-19T21:52:30.616Z,0.50
2022-08-19T21:57:32.305Z,0.60
2022-08-19T22:02:33.767Z,1.00
2022-08-19T22:07:36.785Z,0.40
2022-08-19T22:12:39.411Z,0.50
2022-08-19T22:17:53.623Z,0.57
2022-08-19T22:22:58.787Z,0.70
2022-08-19T22:28:01.853Z,0.70
2022-08-19T22:33:06.211Z,0.82
2022-08-19T22:38:10.145Z,0.60
2022-08-19T22:43:16.030Z,0.75
2022-08-19T22:48:20.008Z,0.75
2022-08-19T22:53:21.459Z,0.60
2022-08-19T22:58:27.997Z,0.60
2022-08-19T23:03:29.901Z,0.95
2022-08-19T23:08:31.633Z,0.40
2022-08-19T23:13:33.663Z,0.70
2022-08-19T23:18:35.229Z,0.95
2022-08-19T23:23:37.756Z,0.45
2022-08-19T23:28:59.438Z,0.70
2022-08-19T23:34:00.939Z,0.73
2022-08-19T23:39:02.451Z,0.85
2022-08-19T23:44:04.177Z,0.70
2022-08-19T23:49:06.396Z,0.70
2022-08-19T23:54:07.876Z,0.70
2022-08-19T23:59:09.431Z,0.70
